Map

Track Data

SID SEASON NUMBER BASIN SUBBASIN NAME ISO_TIME NATURE LAT LON WMO_WIND WMO_PRES WMO_AGENCY TRACK_TYPE DIST2LAND LANDFALL IFLAG USA_AGENCY USA_ATCF_ID USA_LAT USA_LON USA_RECORD USA_STATUS USA_WIND USA_PRES USA_SSHS USA_R34_NE USA_R34_SE USA_R34_SW USA_R34_NW USA_R50_NE USA_R50_SE USA_R50_SW USA_R50_NW USA_R64_NE USA_R64_SE USA_R64_SW USA_R64_NW USA_POCI USA_ROCI USA_RMW USA_EYE TOKYO_LAT TOKYO_LON TOKYO_GRADE TOKYO_WIND TOKYO_PRES TOKYO_R50_DIR TOKYO_R50_LONG TOKYO_R50_SHORT TOKYO_R30_DIR TOKYO_R30_LONG TOKYO_R30_SHORT TOKYO_LAND CMA_LAT CMA_LON CMA_CAT CMA_WIND CMA_PRES HKO_LAT HKO_LON HKO_CAT HKO_WIND HKO_PRES NEWDELHI_LAT NEWDELHI_LON NEWDELHI_GRADE NEWDELHI_WIND NEWDELHI_PRES NEWDELHI_CI NEWDELHI_DP NEWDELHI_POCI REUNION_LAT REUNION_LON REUNION_TYPE REUNION_WIND REUNION_PRES REUNION_TNUM REUNION_CI REUNION_RMW REUNION_R34_NE REUNION_R34_SE REUNION_R34_SW REUNION_R34_NW REUNION_R50_NE REUNION_R50_SE REUNION_R50_SW REUNION_R50_NW REUNION_R64_NE REUNION_R64_SE REUNION_R64_SW REUNION_R64_NW BOM_LAT BOM_LON BOM_TYPE BOM_WIND BOM_PRES BOM_TNUM BOM_CI BOM_RMW BOM_R34_NE BOM_R34_SE BOM_R34_SW BOM_R34_NW BOM_R50_NE BOM_R50_SE BOM_R50_SW BOM_R50_NW BOM_R64_NE BOM_R64_SE BOM_R64_SW BOM_R64_NW BOM_ROCI BOM_POCI BOM_EYE BOM_POS_METHOD BOM_PRES_METHOD NADI_LAT NADI_LON NADI_CAT NADI_WIND NADI_PRES WELLINGTON_LAT WELLINGTON_LON WELLINGTON_WIND WELLINGTON_PRES DS824_LAT DS824_LON DS824_STAGE DS824_WIND DS824_PRES TD9636_LAT TD9636_LON TD9636_STAGE TD9636_WIND TD9636_PRES TD9635_LAT TD9635_LON TD9635_WIND TD9635_PRES TD9635_ROCI NEUMANN_LAT NEUMANN_LON NEUMANN_CLASS NEUMANN_WIND NEUMANN_PRES MLC_LAT MLC_LON MLC_CLASS MLC_WIND MLC_PRES USA_GUST BOM_GUST BOM_GUST_PER REUNION_GUST REUNION_GUST_PER USA_SEAHGT USA_SEARAD_NE USA_SEARAD_SE USA_SEARAD_SW USA_SEARAD_NW STORM_SPEED STORM_DIR
2021294N13268 2021 86 EP MM RICK 2021-10-20 12:00:00 NR 12.7000 -91.9000 PROVISIONAL 149 149 O_____________ nhc_working_bt EP172021 12.7000 -91.9000 DB 25 1011 -3 1012 300 50 9 270
2021294N13268 2021 86 EP MM RICK 2021-10-20 15:00:00 NR 12.7002 -92.3525 PROVISIONAL 179 179 P_____________ EP172021 12.7002 -92.3525 DB 25 1011 -3 1012 300 50 9 270
2021294N13268 2021 86 EP MM RICK 2021-10-20 18:00:00 NR 12.7000 -92.8000 PROVISIONAL 199 199 O_____________ nhc_working_bt EP172021 12.7000 -92.8000 DB 25 1011 -3 1012 300 50 9 270
2021294N13268 2021 86 EP MM RICK 2021-10-20 21:00:00 NR 12.6999 -93.2425 PROVISIONAL 226 226 P_____________ EP172021 12.6999 -93.2425 DB 25 1011 -3 1012 300 50 9 270
2021294N13268 2021 86 EP MM RICK 2021-10-21 00:00:00 NR 12.7000 -93.7000 PROVISIONAL 258 258 O_____________ nhc_working_bt EP172021 12.7000 -93.7000 DB 25 1011 -3 1012 300 50 9 270
2021294N13268 2021 86 EP MM RICK 2021-10-21 03:00:00 NR 12.7074 -94.1850 PROVISIONAL 295 295 P_____________ EP172021 12.7074 -94.1850 DB 25 1011 -3 1012 300 50 10 270
2021294N13268 2021 86 EP MM RICK 2021-10-21 06:00:00 NR 12.7000 -94.7000 PROVISIONAL 334 334 O_____________ nhc_working_bt EP172021 12.7000 -94.7000 DB 25 1011 -3 1012 300 50 10 267
2021294N13268 2021 86 EP MM RICK 2021-10-21 09:00:00 NR 12.6574 -95.2350 PROVISIONAL 352 346 P_____________ EP172021 12.6574 -95.2350 DB 25 1011 -3 1012 300 50 11 265
2021294N13268 2021 86 EP MM RICK 2021-10-21 12:00:00 NR 12.6000 -95.8000 PROVISIONAL 346 337 O_____________ nhc_working_bt EP172021 12.6000 -95.8000 DB 25 1011 -3 1012 300 50 11 264
2021294N13268 2021 86 EP MM RICK 2021-10-21 15:00:00 NR 12.5424 -96.3925 PROVISIONAL 347 347 P_____________ EP172021 12.5424 -96.3925 DB 25 1011 -3 1012 300 50 12 265
2021294N13268 2021 86 EP MM RICK 2021-10-21 18:00:00 NR 12.5000 -97.0000 PROVISIONAL 349 349 O_____________ nhc_working_bt EP172021 12.5000 -97.0000 DB 25 1011 -3 1012 300 50 12 267
2021294N13268 2021 86 EP MM RICK 2021-10-21 21:00:00 NR 12.4849 -97.6075 PROVISIONAL 363 363 P_____________ EP172021 12.4849 -97.6075 DB 25 1010 -3 1011 250 45 12 270
2021294N13268 2021 86 EP MM RICK 2021-10-22 00:00:00 NR 12.5000 -98.2000 PROVISIONAL 387 387 O_____________ nhc_working_bt EP172021 12.5000 -98.2000 DB 25 1009 -3 1011 200 40 35 11 273
2021294N13268 2021 86 EP MM RICK 2021-10-22 03:00:00 NR 12.5424 -98.7650 PROVISIONAL 406 398 P_____________ EP172021 12.5424 -98.7650 DB 25 1009 -3 1011 160 65 11 275
2021294N13268 2021 86 EP MM RICK 2021-10-22 06:00:00 NR 12.6000 -99.3000 PROVISIONAL 413 413 O_____________ nhc_working_bt EP172021 12.6000 -99.3000 DB 25 1009 -3 1011 120 90 35 11 275
2021294N13268 2021 86 EP MM RICK 2021-10-22 09:00:00 NR 12.6425 -99.8375 PROVISIONAL 433 426 P_____________ EP172021 12.6425 -99.8375 DB 27 1008 -3 1011 120 70 10 276
2021294N13268 2021 86 EP MM RICK 2021-10-22 12:00:00 TS 12.7000 -100.300 PROVISIONAL 442 442 O_____________ nhc_working_bt EP172021 12.7000 -100.300 TD 30 1007 -1 1011 120 50 40 8 280
2021294N13268 2021 86 EP MM RICK 2021-10-22 15:00:00 TS 12.7883 -100.644 PROVISIONAL 447 441 P_____________ EP172021 12.7849 -100.653 TD 32 1006 -1 1010 110 45 6 289
2021294N13268 2021 86 EP MM RICK 2021-10-22 18:00:00 TS 12.9000 -100.900 PROVISIONAL 444 437 O_____________ nhc_working_bt EP172021 12.9000 -100.900 TS 35 1005 0 40 40 1009 100 40 45 5 299
2021294N13268 2021 86 EP MM RICK 2021-10-22 21:00:00 TS 13.0274 -101.080 PROVISIONAL 440 423 P_____________ EP172021 13.0274 -101.080 TS 40 1003 0 40 40 1009 100 40 4 316
2021294N13268 2021 86 EP MM RICK 2021-10-23 00:00:00 TS 13.2000 -101.200 PROVISIONAL 423 407 O_____________ nhc_working_bt EP172021 13.2000 -101.200 TS 45 1002 0 40 40 40 1009 100 40 50 12 60 5 330
2021294N13268 2021 86 EP MM RICK 2021-10-23 03:00:00 TS 13.4332 -101.318 PROVISIONAL 407 382 P_____________ EP172021 13.4275 -101.315 TS 50 999 0 40 45 40 10 1009 110 30 12 75 6 338
2021294N13268 2021 86 EP MM RICK 2021-10-23 06:00:00 TS 13.7107 -101.417 PROVISIONAL 382 358 O_____________ nhc_working_bt EP172021 13.7000 -101.400 TS 55 997 0 40 50 30 40 20 1010 120 20 65 12 90 60 6 344
2021294N13268 2021 86 EP MM RICK 2021-10-23 09:00:00 TS 14.0147 -101.494 PROVISIONAL 358 330 P_____________ EP172021 13.9925 -101.450 TS 60 993 0 45 50 30 40 20 1009 120 17 12 105 75 6 348
2021294N13268 2021 86 EP MM RICK 2021-10-23 12:00:00 TS 14.3235 -101.551 PROVISIONAL 334 303 O_____________ nhc_working_bt EP172021 14.3000 -101.500 HU 65 990 1 50 50 30 40 30 20 15 1008 120 15 80 12 120 45 30 90 6 347
2021294N13268 2021 86 EP MM RICK 2021-10-23 15:00:00 TS 14.6217 -101.634 PROVISIONAL 303 274 P_____________ EP172021 14.6225 -101.607 HU 70 985 1 50 50 30 45 30 20 15 1008 120 15 12 120 67 45 105 6 344
2021294N13268 2021 86 EP MM RICK 2021-10-23 18:00:00 TS 14.8794 -101.716 PROVISIONAL 274 264 O_____________ nhc_working_bt EP172021 14.9000 -101.700 HU 75 981 1 50 50 30 50 30 20 30 15 15 1008 120 15 90 12 120 90 60 120 5 342
2021294N13268 2021 86 EP MM RICK 2021-10-23 21:00:00 TS 15.0512 -101.776 PROVISIONAL 257 257 P_____________ EP172021 15.0800 -101.723 HU 75 979 1 50 50 30 50 30 20 30 15 15 1008 120 15 12 120 90 60 120 3 343
2021294N13268 2021 86 EP MM RICK 2021-10-24 00:00:00 TS 15.1500 -101.800 PROVISIONAL 246 243 O_____________ nhc_working_bt EP172021 15.2000 -101.700 HU 75 978 1 50 50 30 50 30 20 30 15 15 1008 120 15 90 12 120 90 60 120 2 14
2021294N13268 2021 86 EP MM RICK 2021-10-24 03:00:00 TS 15.2350 -101.733 PROVISIONAL 243 232 P_____________ EP172021 15.3000 -101.650 HU 75 979 1 50 50 30 50 30 20 30 15 15 1008 110 12 12 120 105 75 120 2 36
2021294N13268 2021 86 EP MM RICK 2021-10-24 06:00:00 TS 15.3500 -101.650 PROVISIONAL 222 197 O_____________ nhc_working_bt EP172021 15.4000 -101.600 HU 75 981 1 50 50 30 50 30 20 20 30 15 11 15 1008 100 10 90 12 120 120 90 120 4 15
2021294N13268 2021 86 EP MM RICK 2021-10-24 09:00:00 TS 15.5750 -101.642 PROVISIONAL 197 179 P_____________ EP172021 15.5425 -101.592 HU 75 980 1 50 50 30 50 30 25 20 30 15 11 15 1008 100 10 12 120 135 90 120 5 0
2021294N13268 2021 86 EP MM RICK 2021-10-24 12:00:00 TS 15.8000 -101.650 PROVISIONAL 179 165 O_____________ nhc_working_bt EP172021 15.7000 -101.600 HU 75 980 1 50 50 30 50 30 30 20 30 15 11 15 1008 100 10 90 12 120 150 90 120 3 2
2021294N13268 2021 86 EP MM RICK 2021-10-24 15:00:00 TS 15.8963 -101.625 PROVISIONAL 165 154 P_____________ EP172021 15.8350 -101.600 HU 75 980 1 55 60 40 55 30 30 20 30 15 11 15 1008 100 10 12 105 135 105 135 2 13
2021294N13268 2021 86 EP MM RICK 2021-10-24 18:00:00 TS 16.0000 -101.600 PROVISIONAL 154 134 O_____________ nhc_working_bt EP172021 16.0000 -101.600 HU 75 980 1 60 70 50 60 30 30 20 30 15 11 15 1008 100 10 90 12 90 120 120 150 3 8
2021294N13268 2021 86 EP MM RICK 2021-10-24 21:00:00 TS 16.2125 -101.589 PROVISIONAL 134 104 P_____________ EP172021 16.2200 -101.593 HU 77 978 1 65 70 50 60 30 30 25 30 17 15 15 1008 100 12 12 90 120 120 135 5 2
2021294N13268 2021 86 EP MM RICK 2021-10-25 00:00:00 TS 16.5000 -101.600 PROVISIONAL 104 77 O_____________ nhc_working_bt EP172021 16.5000 -101.600 HU 80 977 1 70 70 50 60 30 30 30 30 20 20 15 15 1008 100 15 100 12 90 120 120 120 6 356
2021294N13268 2021 86 EP MM RICK 2021-10-25 03:00:00 TS 16.8200 -101.624 PROVISIONAL 77 49 P_____________ EP172021 16.8275 -101.628 HU 85 977 2 70 70 50 55 30 30 25 30 20 20 15 15 1008 100 15 12 75 120 120 105 7 352
2021294N13268 2021 86 EP MM RICK 2021-10-25 06:00:00 TS 17.2000 -101.700 PROVISIONAL 49 15 O_____________ nhc_working_bt EP172021 17.2000 -101.700 HU 90 977 2 70 70 50 50 30 30 20 30 20 20 15 15 1008 100 15 110 12 60 120 120 90 8 344
2021294N13268 2021 86 EP MM RICK 2021-10-25 09:00:00 TS 17.6013 -101.849 PROVISIONAL 15 0 P_____________ EP172021 17.5475 -101.813 HU 87 978 2 70 70 50 50 30 30 20 30 20 20 15 15 1008 95 15 12 45 105 105 75 10 340
2021294N13268 2021 86 EP MM RICK 2021-10-25 12:00:00 TS 18.1000 -102.050 PROVISIONAL 0 0 O_____________ nhc_working_bt EP172021 18.0000 -102.000 HU 85 980 2 70 70 50 50 30 30 20 30 20 20 15 15 1008 90 15 105 12 30 90 90 60 13 341
2021294N13268 2021 86 EP MM RICK 2021-10-25 15:00:00 TS 18.8013 -102.271 PROVISIONAL 0 0 P_____________ EP172021 18.7151 -102.299 HU 67 988 1 55 55 50 50 25 10 10 7 7 1008 105 17 12 90 82 14 342
2021294N13268 2021 86 EP MM RICK 2021-10-25 18:00:00 TS 19.4500 -102.500 PROVISIONAL 0 0 O_____________ nhc_working_bt EP172021 19.4000 -102.600 TS 50 997 0 40 40 50 50 20 1008 120 20 60 12 90 75 11 338
2021294N13268 2021 86 EP MM RICK 2021-10-25 21:00:00 TS 19.8162 -102.708 PROVISIONAL 0 0 P_____________ EP172021 19.7949 -102.788 TS 35 1003 0 20 20 25 25 1010 135 45 7 326
2021294N13268 2021 86 EP MM RICK 2021-10-26 00:00:00 NR 20.0000 -102.900 PROVISIONAL 0 O_____________ nhc_working_bt EP172021 20.0000 -102.900 DB 20 1010 -3 1012 150 70 30 5 315

About IBTrACS Database

This database is a web-friendly format of International Best Track Archive for Climate Stewardship (IBTrACS), a global best track data archive curated by NOAA dating back to 1842.

Updated: 2022-08-05